Weather at Los Angeles International Airport

Public forecast

Using degrees Fahrenheit for public forecast. Weather courtesy of forecast.io.

Current aviation weather report (METAR) for Los Angeles International Airport

Retrieved 2020/10/22 04:53 UTC (51 minutes ago):

KLAX 220453Z 18005KT 10SM OVC016 19/15 A2985 RMK AO2 SLP104 T01890150

Aviation forecast (TAF) for Los Angeles International Airport

Retrieved 2020-10-22 00:36 UTC (5 hours ago):

TAF KLAX 212333Z 2200/2306 26009KT 6SM HZ FEW020 FM220300 26008KT 6SM BR OVC015 FM220500 VRB03KT 5SM BR OVC009 FM221400 VRB03KT P6SM OVC015 FM222200 25010KT P6SM BKN040 FM230300 26005KT P6SM BKN015